Terminal Aerodrome Forecast
Issued by NWS Jackson, MS

Home | Current Version | Previous Version | Text Only | Print | Product List | Glossary On
Versions: 1 2 3 4 5 6 7 8 9 10 11 12
314
FTUS44 KJAN 231122
TAFGLH
TAF
KGLH 231122Z 2312/2412 26007KT P6SM SCT015 BKN035
     FM231600 27008KT P6SM OVC015
     FM232100 29011KT P6SM VCSH BKN025 BKN035
     FM240100 31005KT P6SM SCT025 BKN050
     FM240800 29005KT P6SM SCT007 BKN015=

USA.gov is the U.S. government's official web portal to all federal, state and local government web resources and services.